createdAt,value
2018-07-08T00:00:28.426Z,59.41
2018-07-08T00:01:09.001Z,59.41
2018-07-08T00:01:49.558Z,59.69
2018-07-08T00:02:30.159Z,59.5
2018-07-08T00:03:10.726Z,59.6
2018-07-08T00:03:51.307Z,59.41
2018-07-08T00:04:31.881Z,59.89
2018-07-08T00:05:12.439Z,59.31
2018-07-08T00:05:52.987Z,59.5
2018-07-08T00:06:33.566Z,59.31
2018-07-08T00:07:14.135Z,59.12
2018-07-08T00:07:54.716Z,59.5
2018-07-08T00:08:35.289Z,59.41
2018-07-08T00:09:15.859Z,59.41
2018-07-08T00:09:56.405Z,59.41
2018-07-08T00:10:36.971Z,58.73
2018-07-08T00:11:17.546Z,59.41
2018-07-08T00:11:58.109Z,59.31
2018-07-08T00:12:38.678Z,59.22
2018-07-08T00:13:19.272Z,59.02
2018-07-08T00:13:59.857Z,59.47
2018-07-08T00:14:40.416Z,59.57
2018-07-08T00:15:20.975Z,59.12
2018-07-08T00:16:01.547Z,58.89
2018-07-08T00:16:42.119Z,59.47
2018-07-08T00:17:22.692Z,58.89
2018-07-08T00:18:03.258Z,59.38
2018-07-08T00:18:43.820Z,59.66
2018-07-08T00:19:24.402Z,59.66
2018-07-08T00:20:04.975Z,59.47
2018-07-08T00:20:45.540Z,59.76
2018-07-08T00:21:26.113Z,60.14
2018-07-08T00:22:06.683Z,59.95
2018-07-08T00:22:47.250Z,60.34
2018-07-08T00:23:27.817Z,60.34
2018-07-08T00:24:08.380Z,60.05
2018-07-08T00:24:48.948Z,60.53
2018-07-08T00:25:29.521Z,60.53
2018-07-08T00:26:10.075Z,60.72
2018-07-08T00:26:50.649Z,60.72
2018-07-08T00:27:31.212Z,60.72
2018-07-08T00:28:11.780Z,60.53
2018-07-08T00:28:52.357Z,60.43
2018-07-08T00:29:32.909Z,60.05
2018-07-08T00:30:13.464Z,60.43
2018-07-08T00:30:54.021Z,60.63
2018-07-08T00:31:34.571Z,60.82
2018-07-08T00:32:15.133Z,60.82
2018-07-08T00:32:55.702Z,61.01
2018-07-08T00:33:36.265Z,60.91
2018-07-08T00:34:16.849Z,60.43
2018-07-08T00:34:57.422Z,60.82
2018-07-08T00:35:37.984Z,60.72
2018-07-08T00:36:18.542Z,60.34
2018-07-08T00:36:59.121Z,60.63
2018-07-08T00:37:39.688Z,60.63
2018-07-08T00:38:20.245Z,60.72
2018-07-08T00:39:00.805Z,60.72
2018-07-08T00:39:41.423Z,60.14
2018-07-08T00:40:21.962Z,60.14
2018-07-08T00:41:02.526Z,60.53
2018-07-08T00:41:43.097Z,60.72
2018-07-08T00:42:23.641Z,60.53
2018-07-08T00:43:04.200Z,60.43
2018-07-08T00:43:44.764Z,60.63
2018-07-08T00:44:25.321Z,60.43
2018-07-08T00:45:05.908Z,60.43
2018-07-08T00:45:46.478Z,60.63
2018-07-08T00:46:27.047Z,60.91
2018-07-08T00:47:07.600Z,60.5
2018-07-08T00:47:48.166Z,60.69
2018-07-08T00:48:28.739Z,60.82
2018-07-08T00:49:09.303Z,61.2
2018-07-08T00:49:49.874Z,61.2
2018-07-08T00:50:30.443Z,61.08
2018-07-08T00:51:11.027Z,60.78
2018-07-08T00:51:51.599Z,60.98
2018-07-08T00:52:32.172Z,61.17
2018-07-08T00:53:12.737Z,61.46
2018-07-08T00:53:53.353Z,61.08
2018-07-08T00:54:33.875Z,61.17
2018-07-08T00:55:14.416Z,61.08
2018-07-08T00:55:54.960Z,61.17
2018-07-08T00:56:35.519Z,61.27
2018-07-08T00:57:16.090Z,60.88
2018-07-08T00:57:56.649Z,61.27
2018-07-08T00:58:37.218Z,61.55
2018-07-08T00:59:17.802Z,61.36
2018-07-08T00:59:58.355Z,61.27
2018-07-08T01:00:38.919Z,61.36
2018-07-08T01:01:19.494Z,61.94
2018-07-08T01:02:00.061Z,61.94
2018-07-08T01:02:40.620Z,62.04
2018-07-08T01:03:21.190Z,61.36
2018-07-08T01:04:01.783Z,61.55
2018-07-08T01:04:42.341Z,61.65
2018-07-08T01:05:22.915Z,61.75
2018-07-08T01:06:03.487Z,62.32
2018-07-08T01:06:44.096Z,62.32
2018-07-08T01:07:24.634Z,62.13
2018-07-08T01:08:05.197Z,62.23
2018-07-08T01:08:45.780Z,62.42
2018-07-08T01:09:26.331Z,62.04
2018-07-08T01:10:06.868Z,62.23
2018-07-08T01:10:47.440Z,62.52
2018-07-08T01:11:28.039Z,62.23
2018-07-08T01:12:08.579Z,62.52
2018-07-08T01:12:49.154Z,62.71
2018-07-08T01:13:29.721Z,62.61
2018-07-08T01:14:10.286Z,62.42
2018-07-08T01:14:50.842Z,62.04
2018-07-08T01:15:31.402Z,62.32
2018-07-08T01:16:11.973Z,62.32
2018-07-08T01:16:52.537Z,62.42
2018-07-08T01:17:33.094Z,62.42
2018-07-08T01:18:13.658Z,62.32
2018-07-08T01:18:54.224Z,62.42
2018-07-08T01:19:34.819Z,62.23
2018-07-08T01:20:15.373Z,62.42
2018-07-08T01:20:55.938Z,62.42
2018-07-08T01:21:36.500Z,62.23
2018-07-08T01:22:17.057Z,62.52
2018-07-08T01:22:57.618Z,62.42
2018-07-08T01:23:38.194Z,62.23
2018-07-08T01:24:18.769Z,62.52
2018-07-08T01:24:59.353Z,62.23
2018-07-08T01:25:39.904Z,62.71
2018-07-08T01:26:20.464Z,62.52
2018-07-08T01:27:01.003Z,62.71
2018-07-08T01:27:41.555Z,62.13
2018-07-08T01:28:22.120Z,62.81
2018-07-08T01:29:02.660Z,62.52
2018-07-08T01:29:43.235Z,63.19
2018-07-08T01:30:23.792Z,62.52
2018-07-08T01:31:04.355Z,62.23
2018-07-08T01:31:44.919Z,62.32
2018-07-08T01:32:25.476Z,62.42
2018-07-08T01:33:06.046Z,62.81
2018-07-08T01:33:46.611Z,62.81
2018-07-08T01:34:27.165Z,62.9
2018-07-08T01:35:07.753Z,62.9
2018-07-08T01:35:48.347Z,63.06
2018-07-08T01:36:28.911Z,62.99
2018-07-08T01:37:09.466Z,63.38
2018-07-08T01:37:50.021Z,63.28
2018-07-08T01:38:30.586Z,63.38
2018-07-08T01:39:11.122Z,62.9
2018-07-08T01:39:51.664Z,63.09
2018-07-08T01:40:32.225Z,63.19
2018-07-08T01:41:12.794Z,63.57
2018-07-08T01:41:53.371Z,63.38
2018-07-08T01:42:33.946Z,63.48
2018-07-08T01:43:14.506Z,63.28
2018-07-08T01:43:55.076Z,63.28
2018-07-08T01:44:35.645Z,62.9
2018-07-08T01:45:16.230Z,63.38
2018-07-08T01:45:56.796Z,63.28
2018-07-08T01:46:37.362Z,63.19
2018-07-08T01:47:17.918Z,63.09
2018-07-08T01:47:58.520Z,62.48
2018-07-08T01:48:39.033Z,62.58
2018-07-08T01:49:19.578Z,63.06
2018-07-08T01:50:00.128Z,63.35
2018-07-08T01:50:40.687Z,63.54
2018-07-08T01:51:21.269Z,63.73
2018-07-08T01:52:01.837Z,63.54
2018-07-08T01:52:42.413Z,63.25
2018-07-08T01:53:22.988Z,64.12
2018-07-08T01:54:03.565Z,63.73
2018-07-08T01:54:44.207Z,63.54
2018-07-08T01:55:24.768Z,63.83
2018-07-08T01:56:05.351Z,64.02
2018-07-08T01:56:45.923Z,63.45
2018-07-08T01:57:26.479Z,63.45
2018-07-08T01:58:07.032Z,63.92
2018-07-08T01:58:47.586Z,63.64
2018-07-08T01:59:28.121Z,64.12
2018-07-08T02:00:08.673Z,64.22
2018-07-08T02:00:49.256Z,64.5
2018-07-08T02:01:29.819Z,64.02
2018-07-08T02:02:10.372Z,64.5
2018-07-08T02:02:50.932Z,64.69
2018-07-08T02:03:31.489Z,64.59
2018-07-08T02:04:12.043Z,64.59
2018-07-08T02:04:52.608Z,64.59
2018-07-08T02:05:33.175Z,64.5
2018-07-08T02:06:13.743Z,64.69
2018-07-08T02:06:54.317Z,64.69
2018-07-08T02:07:34.896Z,64.4
2018-07-08T02:08:15.468Z,64.5
2018-07-08T02:08:56.049Z,64.4
2018-07-08T02:09:36.601Z,64.5
2018-07-08T02:10:17.168Z,64.4
2018-07-08T02:10:57.735Z,64.4
2018-07-08T02:11:38.302Z,64.12
2018-07-08T02:12:18.888Z,64.12
2018-07-08T02:12:59.457Z,64.5
2018-07-08T02:13:40.032Z,64.5
2018-07-08T02:14:20.588Z,64.5
2018-07-08T02:15:01.156Z,64.4
2018-07-08T02:15:41.720Z,64.31
2018-07-08T02:16:22.307Z,64.59
2018-07-08T02:17:02.870Z,64.4
2018-07-08T02:17:43.548Z,64.5
2018-07-08T02:18:24.368Z,64.89
2018-07-08T02:19:05.379Z,64.5
2018-07-08T02:19:45.721Z,64.5
2018-07-08T02:20:26.288Z,64.4
2018-07-08T02:21:06.858Z,64.98
2018-07-08T02:21:47.432Z,64.89
2018-07-08T02:22:27.992Z,64.79
2018-07-08T02:23:08.579Z,64.98
2018-07-08T02:23:49.221Z,64.98
2018-07-08T02:24:29.794Z,64.4
2018-07-08T02:25:10.361Z,64.79
2018-07-08T02:25:50.931Z,64.79
2018-07-08T02:26:31.515Z,65.08
2018-07-08T02:27:12.104Z,65.17
2018-07-08T02:27:52.671Z,64.89
2018-07-08T02:28:33.245Z,64.4
2018-07-08T02:29:13.806Z,64.98
2018-07-08T02:29:54.377Z,65.08
2018-07-08T02:30:34.928Z,64.98
2018-07-08T02:31:15.493Z,65.08
2018-07-08T02:31:56.066Z,64.89
2018-07-08T02:32:36.621Z,64.79
2018-07-08T02:33:17.188Z,64.98
2018-07-08T02:33:57.762Z,64.98
2018-07-08T02:34:38.325Z,64.98
2018-07-08T02:35:18.925Z,65.65
2018-07-08T02:35:59.481Z,65.46
2018-07-08T02:36:40.039Z,65.56
2018-07-08T02:37:20.646Z,65.08
2018-07-08T02:38:01.216Z,65.17
2018-07-08T02:38:41.795Z,64.89
2018-07-08T02:39:22.347Z,65.08
2018-07-08T02:40:02.915Z,65.36
2018-07-08T02:40:43.486Z,65.65
2018-07-08T02:41:24.053Z,65.08
2018-07-08T02:42:04.686Z,64.79
2018-07-08T02:42:45.239Z,64.89
2018-07-08T02:43:25.802Z,65.08
2018-07-08T02:44:06.377Z,65.17
2018-07-08T02:44:46.944Z,65.46
2018-07-08T02:45:27.527Z,65.56
2018-07-08T02:46:08.095Z,65.27
2018-07-08T02:46:48.654Z,65.56
2018-07-08T02:47:29.225Z,65.46
2018-07-08T02:48:09.796Z,65.46
2018-07-08T02:48:50.387Z,65.46
2018-07-08T02:49:30.994Z,65.27
2018-07-08T02:50:11.576Z,65.36
2018-07-08T02:50:52.130Z,65.56
2018-07-08T02:51:32.820Z,65.56
2018-07-08T02:52:13.387Z,65.27
2018-07-08T02:52:53.942Z,65.65
2018-07-08T02:53:34.502Z,65.75
2018-07-08T02:54:15.117Z,65.75
2018-07-08T02:54:55.674Z,65.56
2018-07-08T02:55:36.301Z,65.46
2018-07-08T02:56:16.871Z,65.65
2018-07-08T02:56:57.521Z,65.84
2018-07-08T02:57:38.077Z,65.94
2018-07-08T02:58:18.951Z,65.84
2018-07-08T02:58:59.528Z,65.75
2018-07-08T02:59:40.235Z,65.75
2018-07-08T03:00:20.869Z,66.23
2018-07-08T03:01:01.501Z,66.03
2018-07-08T03:01:42.060Z,66.03
2018-07-08T03:02:22.620Z,65.94
2018-07-08T03:03:03.183Z,66.03
2018-07-08T03:03:43.753Z,65.84
2018-07-08T03:04:24.308Z,65.65
2018-07-08T03:05:04.871Z,65.65
2018-07-08T03:05:45.461Z,65.65
2018-07-08T03:06:26.025Z,66.03
2018-07-08T03:07:06.582Z,66.03
2018-07-08T03:07:47.140Z,65.65
2018-07-08T03:08:27.706Z,65.75
2018-07-08T03:09:08.258Z,65.84
2018-07-08T03:09:48.840Z,65.84
2018-07-08T03:10:29.412Z,65.94
2018-07-08T03:11:09.961Z,65.94
2018-07-08T03:11:50.534Z,65.94
2018-07-08T03:12:31.074Z,66.03
2018-07-08T03:13:11.639Z,66.13
2018-07-08T03:13:52.196Z,65.75
2018-07-08T03:14:32.761Z,65.56
2018-07-08T03:15:13.329Z,65.75
2018-07-08T03:15:53.899Z,66.03
2018-07-08T03:16:34.473Z,66.13
2018-07-08T03:17:15.046Z,66.03
2018-07-08T03:17:55.606Z,66.03
2018-07-08T03:18:36.185Z,65.84
2018-07-08T03:19:16.742Z,66.61
2018-07-08T03:19:57.327Z,66.71
2018-07-08T03:20:37.884Z,66.52
2018-07-08T03:21:18.451Z,66.33
2018-07-08T03:21:59.010Z,66.61
2018-07-08T03:22:39.600Z,66.42
2018-07-08T03:23:20.174Z,66.52
2018-07-08T03:24:00.743Z,66.61
2018-07-08T03:24:41.314Z,66.13
2018-07-08T03:25:21.874Z,66.23
2018-07-08T03:26:02.456Z,66.61
2018-07-08T03:26:43.016Z,66.42
2018-07-08T03:27:23.576Z,66.42
2018-07-08T03:28:04.142Z,66.52
2018-07-08T03:28:44.695Z,66.42
2018-07-08T03:29:25.268Z,66.42
2018-07-08T03:30:05.820Z,66.42
2018-07-08T03:30:46.416Z,66.33
2018-07-08T03:31:26.970Z,66.03
2018-07-08T03:32:07.537Z,66.42
2018-07-08T03:32:48.102Z,66.42
2018-07-08T03:33:28.704Z,66.71
2018-07-08T03:34:09.240Z,66.8
2018-07-08T03:34:49.812Z,66.61
2018-07-08T03:35:30.377Z,66.52
2018-07-08T03:36:10.940Z,66.23
2018-07-08T03:36:51.520Z,66.23
2018-07-08T03:37:32.080Z,66.61
2018-07-08T03:38:12.626Z,66.52
2018-07-08T03:38:53.177Z,66.13
2018-07-08T03:39:33.760Z,66.71
2018-07-08T03:40:14.321Z,66.42
2018-07-08T03:40:54.889Z,66.61
2018-07-08T03:41:35.452Z,66.9
2018-07-08T03:42:16.044Z,67
2018-07-08T03:42:56.603Z,66.8
2018-07-08T03:43:37.161Z,67
2018-07-08T03:44:17.719Z,66.9
2018-07-08T03:44:58.298Z,67.29
2018-07-08T03:45:38.873Z,66.8
2018-07-08T03:46:19.449Z,66.71
2018-07-08T03:47:00.020Z,66.71
2018-07-08T03:47:40.576Z,67.09
2018-07-08T03:48:21.155Z,67.09
2018-07-08T03:49:01.714Z,67.09
2018-07-08T03:49:42.290Z,67.19
2018-07-08T03:50:22.840Z,67.29
2018-07-08T03:51:03.412Z,67.19
2018-07-08T03:51:43.965Z,67.76
2018-07-08T03:52:24.563Z,67.86
2018-07-08T03:53:05.119Z,67.19
2018-07-08T03:53:45.686Z,67.09
2018-07-08T03:54:26.252Z,67.38
2018-07-08T03:55:06.825Z,67.19
2018-07-08T03:55:47.380Z,67.19
2018-07-08T03:56:27.956Z,67.19
2018-07-08T03:57:08.579Z,67.19
2018-07-08T03:57:49.127Z,67.86
2018-07-08T03:58:29.692Z,67.47
2018-07-08T03:59:10.258Z,67.47
2018-07-08T03:59:50.833Z,67.47
2018-07-08T04:00:31.397Z,67.57
2018-07-08T04:01:11.950Z,67.47
2018-07-08T04:01:52.577Z,67.57
2018-07-08T04:02:33.145Z,67.47
2018-07-08T04:03:13.695Z,67.76
2018-07-08T04:03:54.264Z,67.86
2018-07-08T04:04:34.827Z,67.47
2018-07-08T04:05:15.405Z,67.19
2018-07-08T04:05:55.979Z,67.38
2018-07-08T04:06:36.551Z,67.19
2018-07-08T04:07:17.126Z,67.19
2018-07-08T04:07:57.677Z,67.47
2018-07-08T04:08:38.257Z,67.67
2018-07-08T04:09:18.814Z,67.47
2018-07-08T04:09:59.391Z,67.96
2018-07-08T04:10:39.963Z,67.96
2018-07-08T04:11:20.541Z,67.67
2018-07-08T04:12:01.105Z,67.96
2018-07-08T04:12:41.688Z,67.96
2018-07-08T04:13:22.252Z,67.47
2018-07-08T04:14:02.821Z,67.96
2018-07-08T04:14:43.383Z,67.86
2018-07-08T04:15:24.041Z,67.57
2018-07-08T04:16:04.524Z,67.47
2018-07-08T04:16:45.090Z,67.57
2018-07-08T04:17:25.667Z,67.76
2018-07-08T04:18:06.237Z,67.76
2018-07-08T04:18:46.800Z,67.86
2018-07-08T04:19:27.382Z,67.57
2018-07-08T04:20:07.939Z,67.86
2018-07-08T04:20:48.516Z,67.76
2018-07-08T04:21:29.079Z,67.67
2018-07-08T04:22:09.654Z,67.86
2018-07-08T04:22:50.218Z,67.67
2018-07-08T04:23:30.767Z,67.19
2018-07-08T04:24:11.337Z,67.09
2018-07-08T04:24:51.909Z,67.19
2018-07-08T04:25:32.526Z,67
2018-07-08T04:26:13.034Z,67.19
2018-07-08T04:26:53.607Z,67.38
2018-07-08T04:27:34.170Z,67
2018-07-08T04:28:14.723Z,67.29
2018-07-08T04:28:55.297Z,67.29
2018-07-08T04:29:35.849Z,67.47
2018-07-08T04:30:16.418Z,67.67
2018-07-08T04:30:56.984Z,67.47
2018-07-08T04:31:37.538Z,66.8
2018-07-08T04:32:18.103Z,66.9
2018-07-08T04:32:58.668Z,67.57
2018-07-08T04:33:39.230Z,67.29
2018-07-08T04:34:19.783Z,67.47
2018-07-08T04:35:00.349Z,67.38
2018-07-08T04:35:40.920Z,66.8
2018-07-08T04:36:21.475Z,66.9
2018-07-08T04:37:02.044Z,66.9
2018-07-08T04:37:42.608Z,67
2018-07-08T04:38:23.166Z,66.52
2018-07-08T04:39:03.738Z,66.9
2018-07-08T04:39:44.317Z,66.33
2018-07-08T04:40:24.887Z,66.42
2018-07-08T04:41:05.994Z,66.61
2018-07-08T04:41:46.552Z,66.23
2018-07-08T04:42:27.108Z,66.71
2018-07-08T04:43:07.681Z,67.19
2018-07-08T04:43:48.247Z,67.09
2018-07-08T04:44:28.826Z,67.67
2018-07-08T04:45:09.389Z,67.57
2018-07-08T04:45:49.939Z,67.96
2018-07-08T04:46:30.505Z,67.86
2018-07-08T04:47:11.069Z,67.67
2018-07-08T04:47:51.654Z,67.96
2018-07-08T04:48:32.216Z,67.67
2018-07-08T04:49:12.867Z,67.76
2018-07-08T04:49:53.368Z,67.76
2018-07-08T04:50:33.956Z,67.67
2018-07-08T04:51:14.528Z,67.86
2018-07-08T04:51:55.092Z,67.57
2018-07-08T04:52:35.713Z,68.34
2018-07-08T04:53:16.265Z,68.15
2018-07-08T04:53:56.823Z,68.24
2018-07-08T04:54:37.384Z,68.15
2018-07-08T04:55:17.946Z,67.96
2018-07-08T04:55:58.507Z,68.05
2018-07-08T04:56:39.074Z,68.44
2018-07-08T04:57:19.626Z,68.15
2018-07-08T04:58:00.187Z,68.24
2018-07-08T04:58:40.744Z,68.53
2018-07-08T04:59:21.312Z,68.24
2018-07-08T05:00:01.876Z,67.86
2018-07-08T05:00:42.440Z,67.96
2018-07-08T05:01:23.011Z,67.57
2018-07-08T05:02:03.566Z,67.86
2018-07-08T05:02:44.132Z,67.57
2018-07-08T05:03:24.676Z,67.96
2018-07-08T05:04:05.229Z,67.96
2018-07-08T05:04:45.793Z,67.67
2018-07-08T05:05:26.353Z,68.05
2018-07-08T05:06:06.913Z,68.24
2018-07-08T05:06:47.473Z,67.67
2018-07-08T05:07:28.063Z,67.76
2018-07-08T05:08:08.621Z,67.19
2018-07-08T05:08:49.193Z,66.8
2018-07-08T05:09:29.759Z,67.19
2018-07-08T05:10:10.339Z,67.19
2018-07-08T05:10:50.923Z,67.09
2018-07-08T05:11:31.491Z,66.71
2018-07-08T05:12:12.061Z,66.71
2018-07-08T05:12:52.623Z,66.61
2018-07-08T05:13:33.192Z,66.61
2018-07-08T05:14:13.775Z,66.71
2018-07-08T05:14:54.325Z,67.38
2018-07-08T05:15:34.888Z,67
2018-07-08T05:16:15.451Z,67.19
2018-07-08T05:16:56.004Z,67.19
2018-07-08T05:17:36.583Z,67.76
2018-07-08T05:18:17.147Z,67.86
2018-07-08T05:18:57.697Z,67.47
2018-07-08T05:19:38.262Z,67.47
2018-07-08T05:20:18.862Z,66.9
2018-07-08T05:20:59.384Z,66.71
2018-07-08T05:21:39.967Z,66.8
2018-07-08T05:22:20.511Z,67.29
2018-07-08T05:23:01.083Z,67.67
2018-07-08T05:23:41.637Z,67
2018-07-08T05:24:22.203Z,67.29
2018-07-08T05:25:02.781Z,67.57
2018-07-08T05:25:43.320Z,67.57
2018-07-08T05:26:23.891Z,68.53
2018-07-08T05:27:04.453Z,68.53
2018-07-08T05:27:45.010Z,67.67
2018-07-08T05:28:25.576Z,68.05
2018-07-08T05:29:06.151Z,68.24
2018-07-08T05:29:46.776Z,68.05
2018-07-08T05:30:27.289Z,68.15
2018-07-08T05:31:07.862Z,68.24
2018-07-08T05:31:48.415Z,68.24
2018-07-08T05:32:28.962Z,68.44
2018-07-08T05:33:09.528Z,68.34
2018-07-08T05:33:50.074Z,68.05
2018-07-08T05:34:30.649Z,67.67
2018-07-08T05:35:11.234Z,67.67
2018-07-08T05:35:51.821Z,67.9
2018-07-08T05:36:32.373Z,67.57
2018-07-08T05:37:12.980Z,68.24
2018-07-08T05:37:53.536Z,67.96
2018-07-08T05:38:34.097Z,67.7
2018-07-08T05:39:14.661Z,67.38
2018-07-08T05:39:55.226Z,68.28
2018-07-08T05:40:35.780Z,67.99
2018-07-08T05:41:16.371Z,67.99
2018-07-08T05:41:56.933Z,68.08
2018-07-08T05:42:37.503Z,67.99
2018-07-08T05:43:18.068Z,67.9
2018-07-08T05:43:58.631Z,68.66
2018-07-08T05:44:39.174Z,68.08
2018-07-08T05:45:19.738Z,68.76
2018-07-08T05:46:00.349Z,67.99
2018-07-08T05:46:40.920Z,68.57
2018-07-08T05:47:21.483Z,67.9
2018-07-08T05:48:02.042Z,67.9
2018-07-08T05:48:42.613Z,67.61
2018-07-08T05:49:23.175Z,67.7
2018-07-08T05:50:03.740Z,68.08
2018-07-08T05:50:44.296Z,67.7
2018-07-08T05:51:24.851Z,67.22
2018-07-08T05:52:05.433Z,67.41
2018-07-08T05:52:45.983Z,66.64
2018-07-08T05:53:26.530Z,66.36
2018-07-08T05:54:07.110Z,67.03
2018-07-08T05:54:47.681Z,66.84
2018-07-08T05:55:28.260Z,67.22
2018-07-08T05:56:08.812Z,67.99
2018-07-08T05:56:49.373Z,67.7
2018-07-08T05:57:29.932Z,68.18
2018-07-08T05:58:10.464Z,67.61
2018-07-08T05:58:51.042Z,67.41
2018-07-08T05:59:31.596Z,68.47
2018-07-08T06:00:12.166Z,68.47
2018-07-08T06:00:52.727Z,67.9
2018-07-08T06:01:33.306Z,67.9
2018-07-08T06:02:13.874Z,68.37
2018-07-08T06:02:54.449Z,68.57
2018-07-08T06:03:34.994Z,68.47
2018-07-08T06:04:15.561Z,68.05
2018-07-08T06:04:56.114Z,68.08
2018-07-08T06:05:36.698Z,68.08
2018-07-08T06:06:17.279Z,68.24
2018-07-08T06:06:57.847Z,67.96
2018-07-08T06:07:38.418Z,68.53
2018-07-08T06:08:18.984Z,69.01
2018-07-08T06:08:59.551Z,69.14
2018-07-08T06:09:40.111Z,69.3
2018-07-08T06:10:20.670Z,69.01
2018-07-08T06:11:01.248Z,69.3
2018-07-08T06:11:41.825Z,69.2
2018-07-08T06:12:22.390Z,69.11
2018-07-08T06:13:02.950Z,68.73
2018-07-08T06:13:43.517Z,69.11
2018-07-08T06:14:24.088Z,69.2
2018-07-08T06:15:04.655Z,69.3
2018-07-08T06:15:45.199Z,69.49
2018-07-08T06:16:25.786Z,69.2
2018-07-08T06:17:06.329Z,69.4
2018-07-08T06:17:46.891Z,69.53
2018-07-08T06:18:27.463Z,69.24
2018-07-08T06:19:08.036Z,69.05
2018-07-08T06:19:48.601Z,68.95
2018-07-08T06:20:29.170Z,68.37
2018-07-08T06:21:09.704Z,68.18
2018-07-08T06:21:50.267Z,68.18
2018-07-08T06:22:30.888Z,68.95
2018-07-08T06:23:11.448Z,69.05
2018-07-08T06:23:52.079Z,68.47
2018-07-08T06:24:32.598Z,68.37
2018-07-08T06:25:13.152Z,68.37
2018-07-08T06:25:53.773Z,68.95
2018-07-08T06:26:34.284Z,69.14
2018-07-08T06:27:14.852Z,68.76
2018-07-08T06:27:55.412Z,69.05
2018-07-08T06:28:35.969Z,68.47
2018-07-08T06:29:16.538Z,68.18
2018-07-08T06:29:57.135Z,67.8
2018-07-08T06:30:37.681Z,68.28
2018-07-08T06:31:18.242Z,68.28
2018-07-08T06:31:58.805Z,68.91
2018-07-08T06:32:40.483Z,68.66
2018-07-08T06:33:21.090Z,68.57
2018-07-08T06:34:01.664Z,68.47
2018-07-08T06:34:42.224Z,69.01
2018-07-08T06:35:22.811Z,69.11
2018-07-08T06:36:03.398Z,69.43
2018-07-08T06:36:43.984Z,69.49
2018-07-08T06:37:24.542Z,69.4
2018-07-08T06:38:05.142Z,69.24
2018-07-08T06:38:45.724Z,69.49
2018-07-08T06:39:26.287Z,69.53
2018-07-08T06:40:06.867Z,69.4
2018-07-08T06:40:47.423Z,69.59
2018-07-08T06:41:27.974Z,69.91
2018-07-08T06:42:08.549Z,70.39
2018-07-08T06:42:49.108Z,70.29
2018-07-08T06:43:29.679Z,70.1
2018-07-08T06:44:10.239Z,69.91
2018-07-08T06:44:50.803Z,70.39
2018-07-08T06:45:31.422Z,69.81
2018-07-08T06:46:11.963Z,69.62
2018-07-08T06:46:52.547Z,69.81
2018-07-08T06:47:33.114Z,69.91
2018-07-08T06:48:13.805Z,69.14
2018-07-08T06:48:54.360Z,69.24
2018-07-08T06:49:34.914Z,69.62
2018-07-08T06:50:15.476Z,69.72
2018-07-08T06:50:56.068Z,70.1
2018-07-08T06:51:36.587Z,69.81
2018-07-08T06:52:17.368Z,69.91
2018-07-08T06:52:57.932Z,69.91
2018-07-08T06:53:38.515Z,70.29
2018-07-08T06:54:19.066Z,70.39
2018-07-08T06:54:59.620Z,70.1
2018-07-08T06:55:40.181Z,69.91
2018-07-08T06:56:20.790Z,70.01
2018-07-08T06:57:01.364Z,70.01
2018-07-08T06:57:41.973Z,70.2
2018-07-08T06:58:22.531Z,70.29
2018-07-08T06:59:03.107Z,69.81
2018-07-08T06:59:43.698Z,70.39
2018-07-08T07:00:24.276Z,70.01
2018-07-08T07:01:04.847Z,69.34
2018-07-08T07:01:45.401Z,69.24
2018-07-08T07:02:25.972Z,69.24
2018-07-08T07:03:06.560Z,69.43
2018-07-08T07:03:47.222Z,68.76
2018-07-08T07:04:27.888Z,68.57
2018-07-08T07:05:08.438Z,69.43
2018-07-08T07:05:49.027Z,69.14
2018-07-08T07:06:29.642Z,69.43
2018-07-08T07:07:10.337Z,69.72
2018-07-08T07:07:50.968Z,69.91
2018-07-08T07:08:31.500Z,69.14
2018-07-08T07:09:12.062Z,68.47
2018-07-08T07:09:52.619Z,68.66
2018-07-08T07:10:33.184Z,69.05
2018-07-08T07:11:13.774Z,68.66
2018-07-08T07:11:54.333Z,69.43
2018-07-08T07:12:34.975Z,68.57
2018-07-08T07:13:15.595Z,69.24
2018-07-08T07:13:56.170Z,69.43
2018-07-08T07:14:36.737Z,69.34
2018-07-08T07:15:17.311Z,69.53
2018-07-08T07:15:57.865Z,69.24
2018-07-08T07:16:38.442Z,69.24
2018-07-08T07:17:18.990Z,69.56
2018-07-08T07:17:59.553Z,69.34
2018-07-08T07:18:40.121Z,69.24
2018-07-08T07:19:20.708Z,69.14
2018-07-08T07:20:01.215Z,69.91
2018-07-08T07:20:41.792Z,70.01
2018-07-08T07:21:22.362Z,70.01
2018-07-08T07:22:02.951Z,70.04
2018-07-08T07:22:43.548Z,70.72
2018-07-08T07:23:24.136Z,70.81
2018-07-08T07:24:04.718Z,70.52
2018-07-08T07:24:45.284Z,70.81
2018-07-08T07:25:25.826Z,71.39
2018-07-08T07:26:06.372Z,71.1
2018-07-08T07:26:46.935Z,70.81
2018-07-08T07:27:27.496Z,70.72
2018-07-08T07:28:08.052Z,70.62
2018-07-08T07:28:48.626Z,70.81
2018-07-08T07:29:29.209Z,70.81
2018-07-08T07:30:09.774Z,70.23
2018-07-08T07:30:50.338Z,70.72
2018-07-08T07:31:30.899Z,71
2018-07-08T07:32:11.470Z,70.62
2018-07-08T07:32:52.148Z,71.1
2018-07-08T07:33:32.707Z,70.81
2018-07-08T07:34:13.277Z,70.81
2018-07-08T07:34:53.820Z,70.14
2018-07-08T07:35:34.396Z,69.85
2018-07-08T07:36:14.975Z,69.75
2018-07-08T07:36:55.551Z,70.04
2018-07-08T07:37:36.096Z,69.98
2018-07-08T07:38:16.663Z,69.66
2018-07-08T07:38:57.235Z,69.5
2018-07-08T07:39:37.813Z,69.4
2018-07-08T07:40:18.383Z,69.02
2018-07-08T07:40:58.956Z,68.35
2018-07-08T07:41:39.558Z,68.44
2018-07-08T07:42:20.127Z,67.77
2018-07-08T07:43:00.694Z,67.77
2018-07-08T07:43:41.254Z,68.06
2018-07-08T07:44:21.820Z,67.77
2018-07-08T07:45:02.391Z,67.68
2018-07-08T07:45:42.951Z,69.02
2018-07-08T07:46:23.503Z,68.63
2018-07-08T07:47:04.080Z,69.21
2018-07-08T07:47:44.665Z,68.54
2018-07-08T07:48:25.231Z,68.86
2018-07-08T07:49:05.874Z,68.38
2018-07-08T07:49:46.416Z,68.86
2018-07-08T07:50:26.978Z,69.06
2018-07-08T07:51:07.591Z,68.67
2018-07-08T07:51:48.124Z,68.86
2018-07-08T07:52:28.805Z,68.29
2018-07-08T07:53:09.377Z,68.09
2018-07-08T07:53:49.940Z,66.84
2018-07-08T07:54:30.509Z,66.88
2018-07-08T07:55:11.130Z,66.94
2018-07-08T07:55:51.698Z,67.35
2018-07-08T07:56:32.264Z,67.35
2018-07-08T07:57:12.833Z,67.03
2018-07-08T07:57:53.430Z,66.78
2018-07-08T07:58:33.981Z,67.26
2018-07-08T07:59:14.553Z,66.94
2018-07-08T07:59:55.122Z,67.35
2018-07-08T08:00:35.703Z,67.93
2018-07-08T08:01:16.259Z,67.8
2018-07-08T08:01:56.818Z,67.9
2018-07-08T08:02:37.371Z,68.76
2018-07-08T08:03:17.939Z,67.83
2018-07-08T08:03:58.506Z,68.09
2018-07-08T08:04:39.078Z,67.9
2018-07-08T08:05:19.636Z,67.61
2018-07-08T08:06:00.205Z,68.09
2018-07-08T08:06:40.779Z,68.09
2018-07-08T08:07:21.360Z,68.48
2018-07-08T08:08:01.941Z,68.48
2018-07-08T08:08:42.520Z,67.99
2018-07-08T08:09:23.100Z,68.09
2018-07-08T08:10:03.671Z,67.51
2018-07-08T08:10:44.301Z,66.94
2018-07-08T08:11:24.826Z,66.74
2018-07-08T08:12:05.392Z,66.84
2018-07-08T08:12:45.951Z,67.51
2018-07-08T08:13:26.516Z,67.61
2018-07-08T08:14:07.091Z,66.94
2018-07-08T08:14:47.657Z,68.09
2018-07-08T08:15:28.256Z,68.19
2018-07-08T08:16:08.836Z,68.48
2018-07-08T08:16:49.399Z,68.96
2018-07-08T08:17:29.960Z,68.86
2018-07-08T08:18:10.536Z,68.29
2018-07-08T08:18:51.081Z,68.48
2018-07-08T08:19:31.646Z,68.09
2018-07-08T08:20:12.209Z,68.29
2018-07-08T08:20:52.771Z,68.57
2018-07-08T08:21:33.337Z,68.29
2018-07-08T08:22:13.903Z,68.29
2018-07-08T08:22:54.473Z,68.67
2018-07-08T08:23:35.045Z,68.67
2018-07-08T08:24:15.617Z,68.86
2018-07-08T08:24:56.193Z,69.15
2018-07-08T08:25:36.745Z,69.06
2018-07-08T08:26:17.323Z,68.48
2018-07-08T08:26:57.924Z,68.19
2018-07-08T08:27:38.483Z,67.99
2018-07-08T08:28:19.052Z,67.51
2018-07-08T08:28:59.607Z,67.8
2018-07-08T08:29:40.174Z,68.29
2018-07-08T08:30:20.768Z,69.06
2018-07-08T08:31:01.320Z,68.67
2018-07-08T08:31:41.898Z,68.57
2018-07-08T08:32:22.512Z,68.09
2018-07-08T08:33:03.078Z,67.8
2018-07-08T08:33:43.643Z,67.51
2018-07-08T08:34:24.212Z,67.9
2018-07-08T08:35:04.782Z,67.99
2018-07-08T08:35:45.356Z,67.8
2018-07-08T08:36:25.938Z,68.19
2018-07-08T08:37:06.506Z,68.67
2018-07-08T08:37:47.081Z,68.86
2018-07-08T08:38:27.651Z,69.44
2018-07-08T08:39:08.222Z,69.24
2018-07-08T08:39:48.780Z,69.06
2018-07-08T08:40:29.327Z,69.44
2018-07-08T08:41:09.938Z,69.82
2018-07-08T08:41:50.500Z,70.15
2018-07-08T08:42:31.056Z,69.15
2018-07-08T08:43:11.613Z,68.8
2018-07-08T08:43:52.179Z,69.38
2018-07-08T08:44:32.754Z,69.18
2018-07-08T08:45:13.326Z,69.47